sensor_id;sensor_type;location;lat;lon;timestamp;P1;durP1;ratioP1;P2;durP2;ratioP2
35803;SDS011;21924;51.934;7.414;2023-05-14T00:02:25;7.32;;;4.43;;
35803;SDS011;21924;51.934;7.414;2023-05-14T00:05:09;10.07;;;5.18;;
35803;SDS011;21924;51.934;7.414;2023-05-14T00:07:54;12.15;;;4.78;;
35803;SDS011;21924;51.934;7.414;2023-05-14T00:10:38;8.98;;;4.82;;
35803;SDS011;21924;51.934;7.414;2023-05-14T00:13:22;6.30;;;4.72;;
35803;SDS011;21924;51.934;7.414;2023-05-14T00:16:07;8.70;;;5.07;;
35803;SDS011;21924;51.934;7.414;2023-05-14T00:18:51;11.40;;;5.38;;
35803;SDS011;21924;51.934;7.414;2023-05-14T00:21:36;9.05;;;5.25;;
35803;SDS011;21924;51.934;7.414;2023-05-14T00:24:20;6.47;;;4.82;;
35803;SDS011;21924;51.934;7.414;2023-05-14T00:27:04;6.38;;;4.70;;
35803;SDS011;21924;51.934;7.414;2023-05-14T00:29:49;7.53;;;5.43;;
35803;SDS011;21924;51.934;7.414;2023-05-14T00:32:33;9.82;;;5.68;;
35803;SDS011;21924;51.934;7.414;2023-05-14T00:35:17;7.32;;;5.20;;
35803;SDS011;21924;51.934;7.414;2023-05-14T00:38:04;8.57;;;5.15;;
35803;SDS011;21924;51.934;7.414;2023-05-14T00:40:48;8.05;;;4.93;;
35803;SDS011;21924;51.934;7.414;2023-05-14T00:43:35;7.97;;;5.28;;
35803;SDS011;21924;51.934;7.414;2023-05-14T00:46:20;8.93;;;5.45;;
35803;SDS011;21924;51.934;7.414;2023-05-14T00:49:04;7.57;;;5.45;;
35803;SDS011;21924;51.934;7.414;2023-05-14T00:51:48;9.02;;;5.70;;
35803;SDS011;21924;51.934;7.414;2023-05-14T00:54:33;10.20;;;6.13;;
35803;SDS011;21924;51.934;7.414;2023-05-14T00:57:19;6.70;;;5.22;;
35803;SDS011;21924;51.934;7.414;2023-05-14T01:00:04;12.82;;;5.90;;
35803;SDS011;21924;51.934;7.414;2023-05-14T01:02:49;8.02;;;5.32;;
35803;SDS011;21924;51.934;7.414;2023-05-14T01:05:36;8.63;;;5.90;;
35803;SDS011;21924;51.934;7.414;2023-05-14T01:14:46;13.18;;;5.57;;
35803;SDS011;21924;51.934;7.414;2023-05-14T01:17:43;8.50;;;5.60;;
35803;SDS011;21924;51.934;7.414;2023-05-14T01:20:31;15.30;;;5.75;;
35803;SDS011;21924;51.934;7.414;2023-05-14T01:23:15;8.32;;;5.53;;
35803;SDS011;21924;51.934;7.414;2023-05-14T01:25:59;16.70;;;6.63;;
35803;SDS011;21924;51.934;7.414;2023-05-14T01:28:43;9.27;;;5.85;;
35803;SDS011;21924;51.934;7.414;2023-05-14T01:31:28;11.25;;;5.93;;
35803;SDS011;21924;51.934;7.414;2023-05-14T01:34:15;11.25;;;6.20;;
35803;SDS011;21924;51.934;7.414;2023-05-14T01:37:02;9.10;;;6.18;;
35803;SDS011;21924;51.934;7.414;2023-05-14T01:39:48;9.13;;;5.95;;
35803;SDS011;21924;51.934;7.414;2023-05-14T01:42:34;10.25;;;5.63;;
35803;SDS011;21924;51.934;7.414;2023-05-14T01:45:22;10.52;;;5.88;;
35803;SDS011;21924;51.934;7.414;2023-05-14T01:48:06;11.65;;;6.00;;
35803;SDS011;21924;51.934;7.414;2023-05-14T01:50:51;12.57;;;5.43;;
35803;SDS011;21924;51.934;7.414;2023-05-14T01:53:35;10.20;;;5.57;;
35803;SDS011;21924;51.934;7.414;2023-05-14T01:56:21;8.77;;;5.45;;
35803;SDS011;21924;51.934;7.414;2023-05-14T01:59:06;16.08;;;5.70;;
35803;SDS011;21924;51.934;7.414;2023-05-14T02:01:50;7.57;;;5.43;;
35803;SDS011;21924;51.934;7.414;2023-05-14T02:04:35;9.65;;;6.07;;
35803;SDS011;21924;51.934;7.414;2023-05-14T02:07:19;9.82;;;5.53;;
35803;SDS011;21924;51.934;7.414;2023-05-14T02:10:03;7.93;;;5.30;;
35803;SDS011;21924;51.934;7.414;2023-05-14T02:12:48;8.93;;;5.47;;
35803;SDS011;21924;51.934;7.414;2023-05-14T02:15:32;12.68;;;5.35;;
35803;SDS011;21924;51.934;7.414;2023-05-14T02:18:17;8.40;;;5.38;;
35803;SDS011;21924;51.934;7.414;2023-05-14T02:21:01;8.18;;;5.10;;
35803;SDS011;21924;51.934;7.414;2023-05-14T02:23:46;10.07;;;6.13;;
35803;SDS011;21924;51.934;7.414;2023-05-14T02:26:31;6.38;;;5.15;;
35803;SDS011;21924;51.934;7.414;2023-05-14T02:29:16;9.43;;;5.50;;
35803;SDS011;21924;51.934;7.414;2023-05-14T02:32:00;9.48;;;6.20;;
35803;SDS011;21924;51.934;7.414;2023-05-14T02:34:44;10.27;;;5.38;;
35803;SDS011;21924;51.934;7.414;2023-05-14T02:37:28;9.05;;;5.70;;
35803;SDS011;21924;51.934;7.414;2023-05-14T02:40:13;9.35;;;5.95;;
35803;SDS011;21924;51.934;7.414;2023-05-14T02:42:57;11.07;;;5.22;;
35803;SDS011;21924;51.934;7.414;2023-05-14T02:45:41;9.80;;;5.53;;
35803;SDS011;21924;51.934;7.414;2023-05-14T02:48:26;9.98;;;5.60;;
35803;SDS011;21924;51.934;7.414;2023-05-14T02:51:10;8.77;;;5.43;;
35803;SDS011;21924;51.934;7.414;2023-05-14T02:53:55;12.13;;;5.72;;
35803;SDS011;21924;51.934;7.414;2023-05-14T02:56:39;13.80;;;6.20;;
35803;SDS011;21924;51.934;7.414;2023-05-14T02:59:23;9.73;;;6.43;;
35803;SDS011;21924;51.934;7.414;2023-05-14T03:02:08;8.90;;;6.70;;
35803;SDS011;21924;51.934;7.414;2023-05-14T03:04:52;7.07;;;5.65;;
35803;SDS011;21924;51.934;7.414;2023-05-14T03:07:36;8.60;;;6.32;;
35803;SDS011;21924;51.934;7.414;2023-05-14T03:10:21;7.38;;;5.43;;
35803;SDS011;21924;51.934;7.414;2023-05-14T03:13:05;10.40;;;6.00;;
35803;SDS011;21924;51.934;7.414;2023-05-14T03:15:49;10.18;;;5.88;;
35803;SDS011;21924;51.934;7.414;2023-05-14T03:18:37;10.57;;;6.63;;
35803;SDS011;21924;51.934;7.414;2023-05-14T03:21:21;12.95;;;6.13;;
35803;SDS011;21924;51.934;7.414;2023-05-14T03:24:05;9.13;;;5.60;;
35803;SDS011;21924;51.934;7.414;2023-05-14T03:26:49;9.85;;;6.82;;
35803;SDS011;21924;51.934;7.414;2023-05-14T03:29:34;10.23;;;6.93;;
35803;SDS011;21924;51.934;7.414;2023-05-14T03:32:18;10.95;;;7.10;;
35803;SDS011;21924;51.934;7.414;2023-05-14T03:35:03;10.32;;;6.88;;
35803;SDS011;21924;51.934;7.414;2023-05-14T03:37:47;9.73;;;6.22;;
35803;SDS011;21924;51.934;7.414;2023-05-14T03:40:32;11.90;;;7.10;;
35803;SDS011;21924;51.934;7.414;2023-05-14T03:43:16;9.05;;;6.60;;
35803;SDS011;21924;51.934;7.414;2023-05-14T03:46:00;11.82;;;7.45;;
35803;SDS011;21924;51.934;7.414;2023-05-14T03:48:44;10.77;;;6.93;;
35803;SDS011;21924;51.934;7.414;2023-05-14T03:51:29;9.40;;;6.78;;
35803;SDS011;21924;51.934;7.414;2023-05-14T03:54:14;9.63;;;6.10;;
35803;SDS011;21924;51.934;7.414;2023-05-14T03:56:58;16.25;;;7.95;;
35803;SDS011;21924;51.934;7.414;2023-05-14T03:59:42;12.15;;;8.13;;
35803;SDS011;21924;51.934;7.414;2023-05-14T04:02:27;12.32;;;7.00;;
35803;SDS011;21924;51.934;7.414;2023-05-14T04:05:11;12.05;;;7.28;;
35803;SDS011;21924;51.934;7.414;2023-05-14T04:07:55;8.55;;;6.82;;
35803;SDS011;21924;51.934;7.414;2023-05-14T04:10:41;12.13;;;6.93;;
35803;SDS011;21924;51.934;7.414;2023-05-14T04:13:25;11.93;;;6.82;;
35803;SDS011;21924;51.934;7.414;2023-05-14T04:16:09;9.77;;;6.70;;
35803;SDS011;21924;51.934;7.414;2023-05-14T04:18:54;15.50;;;7.55;;
35803;SDS011;21924;51.934;7.414;2023-05-14T04:21:38;10.13;;;7.18;;
35803;SDS011;21924;51.934;7.414;2023-05-14T04:24:22;16.88;;;7.75;;
35803;SDS011;21924;51.934;7.414;2023-05-14T04:27:06;8.93;;;7.03;;
35803;SDS011;21924;51.934;7.414;2023-05-14T04:29:51;10.55;;;7.97;;
35803;SDS011;21924;51.934;7.414;2023-05-14T04:32:35;13.27;;;7.22;;
35803;SDS011;21924;51.934;7.414;2023-05-14T04:35:20;10.27;;;6.95;;
35803;SDS011;21924;51.934;7.414;2023-05-14T04:38:04;12.82;;;7.15;;
35803;SDS011;21924;51.934;7.414;2023-05-14T04:40:48;9.43;;;6.05;;
35803;SDS011;21924;51.934;7.414;2023-05-14T04:43:33;12.15;;;7.05;;
35803;SDS011;21924;51.934;7.414;2023-05-14T04:46:17;10.18;;;6.63;;
35803;SDS011;21924;51.934;7.414;2023-05-14T04:49:01;10.05;;;7.18;;
35803;SDS011;21924;51.934;7.414;2023-05-14T04:51:46;10.45;;;7.45;;
35803;SDS011;21924;51.934;7.414;2023-05-14T04:54:31;10.82;;;7.45;;
35803;SDS011;21924;51.934;7.414;2023-05-14T04:57:15;10.02;;;7.30;;
35803;SDS011;21924;51.934;7.414;2023-05-14T05:00:00;14.23;;;7.13;;
35803;SDS011;21924;51.934;7.414;2023-05-14T05:02:44;12.15;;;8.00;;
35803;SDS011;21924;51.934;7.414;2023-05-14T05:05:28;16.67;;;8.57;;
35803;SDS011;21924;51.934;7.414;2023-05-14T05:08:13;16.13;;;9.50;;
35803;SDS011;21924;51.934;7.414;2023-05-14T05:10:57;22.20;;;8.80;;
35803;SDS011;21924;51.934;7.414;2023-05-14T05:13:42;13.20;;;8.95;;
35803;SDS011;21924;51.934;7.414;2023-05-14T05:16:26;10.55;;;7.40;;
35803;SDS011;21924;51.934;7.414;2023-05-14T05:19:10;10.98;;;7.68;;
35803;SDS011;21924;51.934;7.414;2023-05-14T05:21:55;12.23;;;8.30;;
35803;SDS011;21924;51.934;7.414;2023-05-14T05:24:39;15.40;;;8.07;;
35803;SDS011;21924;51.934;7.414;2023-05-14T05:27:23;12.40;;;7.90;;
35803;SDS011;21924;51.934;7.414;2023-05-14T05:30:09;18.65;;;8.38;;
35803;SDS011;21924;51.934;7.414;2023-05-14T05:32:53;14.05;;;7.85;;
35803;SDS011;21924;51.934;7.414;2023-05-14T05:35:39;13.30;;;7.80;;
35803;SDS011;21924;51.934;7.414;2023-05-14T05:38:24;12.90;;;8.05;;
35803;SDS011;21924;51.934;7.414;2023-05-14T05:41:09;10.55;;;7.70;;
35803;SDS011;21924;51.934;7.414;2023-05-14T05:43:53;10.40;;;7.45;;
35803;SDS011;21924;51.934;7.414;2023-05-14T05:46:37;16.83;;;9.20;;
35803;SDS011;21924;51.934;7.414;2023-05-14T05:49:22;13.52;;;8.13;;
35803;SDS011;21924;51.934;7.414;2023-05-14T05:52:06;12.75;;;9.18;;
35803;SDS011;21924;51.934;7.414;2023-05-14T05:54:50;12.02;;;7.68;;
35803;SDS011;21924;51.934;7.414;2023-05-14T05:57:34;15.80;;;8.88;;
35803;SDS011;21924;51.934;7.414;2023-05-14T06:00:19;12.95;;;8.27;;
35803;SDS011;21924;51.934;7.414;2023-05-14T06:03:03;13.85;;;8.40;;
35803;SDS011;21924;51.934;7.414;2023-05-14T06:05:47;11.15;;;7.50;;
35803;SDS011;21924;51.934;7.414;2023-05-14T06:08:32;9.68;;;7.07;;
35803;SDS011;21924;51.934;7.414;2023-05-14T06:11:16;12.93;;;8.05;;
35803;SDS011;21924;51.934;7.414;2023-05-14T06:14:00;12.80;;;8.90;;
35803;SDS011;21924;51.934;7.414;2023-05-14T06:16:44;18.15;;;7.70;;
35803;SDS011;21924;51.934;7.414;2023-05-14T06:19:29;16.70;;;8.68;;
35803;SDS011;21924;51.934;7.414;2023-05-14T06:22:13;17.35;;;8.20;;
35803;SDS011;21924;51.934;7.414;2023-05-14T06:24:57;12.65;;;8.40;;
35803;SDS011;21924;51.934;7.414;2023-05-14T06:27:41;11.80;;;8.52;;
35803;SDS011;21924;51.934;7.414;2023-05-14T06:30:26;14.52;;;8.70;;
35803;SDS011;21924;51.934;7.414;2023-05-14T06:33:10;22.40;;;9.00;;
35803;SDS011;21924;51.934;7.414;2023-05-14T06:35:59;12.77;;;8.27;;
35803;SDS011;21924;51.934;7.414;2023-05-14T06:38:45;12.80;;;8.27;;
35803;SDS011;21924;51.934;7.414;2023-05-14T06:41:30;13.82;;;9.23;;
35803;SDS011;21924;51.934;7.414;2023-05-14T06:44:15;11.85;;;7.60;;
35803;SDS011;21924;51.934;7.414;2023-05-14T06:46:59;9.85;;;7.47;;
35803;SDS011;21924;51.934;7.414;2023-05-14T06:49:44;12.90;;;7.47;;
35803;SDS011;21924;51.934;7.414;2023-05-14T06:52:28;15.15;;;7.35;;
35803;SDS011;21924;51.934;7.414;2023-05-14T06:55:13;11.85;;;7.45;;
35803;SDS011;21924;51.934;7.414;2023-05-14T06:57:57;12.45;;;7.60;;
35803;SDS011;21924;51.934;7.414;2023-05-14T07:00:41;12.52;;;7.25;;
35803;SDS011;21924;51.934;7.414;2023-05-14T07:03:26;12.80;;;7.60;;
35803;SDS011;21924;51.934;7.414;2023-05-14T07:06:11;10.23;;;6.80;;
35803;SDS011;21924;51.934;7.414;2023-05-14T07:08:56;9.75;;;6.70;;
35803;SDS011;21924;51.934;7.414;2023-05-14T07:11:40;12.93;;;6.55;;
35803;SDS011;21924;51.934;7.414;2023-05-14T07:14:25;15.88;;;7.93;;
35803;SDS011;21924;51.934;7.414;2023-05-14T07:17:09;10.55;;;6.07;;
35803;SDS011;21924;51.934;7.414;2023-05-14T07:19:53;9.55;;;6.32;;
35803;SDS011;21924;51.934;7.414;2023-05-14T07:22:38;9.60;;;6.63;;
35803;SDS011;21924;51.934;7.414;2023-05-14T07:25:22;8.57;;;6.20;;
35803;SDS011;21924;51.934;7.414;2023-05-14T07:28:07;23.60;;;7.03;;
35803;SDS011;21924;51.934;7.414;2023-05-14T07:30:51;7.25;;;5.47;;
35803;SDS011;21924;51.934;7.414;2023-05-14T07:33:35;8.27;;;6.20;;
35803;SDS011;21924;51.934;7.414;2023-05-14T07:36:19;8.80;;;6.10;;
35803;SDS011;21924;51.934;7.414;2023-05-14T07:39:04;7.78;;;5.65;;
35803;SDS011;21924;51.934;7.414;2023-05-14T07:41:48;9.35;;;5.78;;
35803;SDS011;21924;51.934;7.414;2023-05-14T07:44:33;13.52;;;6.55;;
35803;SDS011;21924;51.934;7.414;2023-05-14T07:47:18;8.82;;;6.10;;
35803;SDS011;21924;51.934;7.414;2023-05-14T07:50:02;8.82;;;5.72;;
35803;SDS011;21924;51.934;7.414;2023-05-14T07:52:46;11.57;;;5.55;;
35803;SDS011;21924;51.934;7.414;2023-05-14T07:55:30;9.15;;;5.72;;
35803;SDS011;21924;51.934;7.414;2023-05-14T07:58:15;7.90;;;5.00;;
35803;SDS011;21924;51.934;7.414;2023-05-14T08:00:59;8.32;;;5.80;;
35803;SDS011;21924;51.934;7.414;2023-05-14T08:03:44;9.88;;;5.15;;
35803;SDS011;21924;51.934;7.414;2023-05-14T08:06:28;6.93;;;5.05;;
35803;SDS011;21924;51.934;7.414;2023-05-14T08:09:12;6.88;;;5.20;;
35803;SDS011;21924;51.934;7.414;2023-05-14T08:11:56;10.75;;;4.85;;
35803;SDS011;21924;51.934;7.414;2023-05-14T08:14:41;8.35;;;5.13;;
35803;SDS011;21924;51.934;7.414;2023-05-14T08:17:25;6.47;;;4.57;;
35803;SDS011;21924;51.934;7.414;2023-05-14T08:20:09;6.18;;;4.43;;
35803;SDS011;21924;51.934;7.414;2023-05-14T08:22:55;7.70;;;4.13;;
35803;SDS011;21924;51.934;7.414;2023-05-14T08:25:40;7.68;;;5.00;;
35803;SDS011;21924;51.934;7.414;2023-05-14T08:28:24;6.47;;;4.38;;
35803;SDS011;21924;51.934;7.414;2023-05-14T08:31:08;6.95;;;4.43;;
35803;SDS011;21924;51.934;7.414;2023-05-14T08:33:53;7.35;;;4.05;;
35803;SDS011;21924;51.934;7.414;2023-05-14T08:36:37;4.57;;;3.67;;
35803;SDS011;21924;51.934;7.414;2023-05-14T08:39:21;4.88;;;3.85;;
35803;SDS011;21924;51.934;7.414;2023-05-14T08:42:05;6.60;;;3.08;;
35803;SDS011;21924;51.934;7.414;2023-05-14T08:45:01;6.65;;;3.35;;
35803;SDS011;21924;51.934;7.414;2023-05-14T08:47:47;5.78;;;3.38;;
35803;SDS011;21924;51.934;7.414;2023-05-14T08:50:33;4.70;;;3.33;;
35803;SDS011;21924;51.934;7.414;2023-05-14T08:53:19;3.97;;;3.28;;
35803;SDS011;21924;51.934;7.414;2023-05-14T08:56:03;4.32;;;3.17;;
35803;SDS011;21924;51.934;7.414;2023-05-14T08:58:48;4.18;;;3.10;;
35803;SDS011;21924;51.934;7.414;2023-05-14T09:01:33;3.50;;;2.72;;
35803;SDS011;21924;51.934;7.414;2023-05-14T09:04:22;3.63;;;2.92;;
35803;SDS011;21924;51.934;7.414;2023-05-14T09:07:07;4.40;;;2.90;;
35803;SDS011;21924;51.934;7.414;2023-05-14T09:09:52;5.70;;;3.25;;
35803;SDS011;21924;51.934;7.414;2023-05-14T09:12:36;3.93;;;2.80;;
35803;SDS011;21924;51.934;7.414;2023-05-14T09:15:21;3.85;;;2.75;;
35803;SDS011;21924;51.934;7.414;2023-05-14T09:18:10;3.42;;;2.65;;
35803;SDS011;21924;51.934;7.414;2023-05-14T09:20:54;2.63;;;2.25;;
35803;SDS011;21924;51.934;7.414;2023-05-14T09:23:41;3.72;;;2.90;;
35803;SDS011;21924;51.934;7.414;2023-05-14T09:26:26;4.68;;;2.50;;
35803;SDS011;21924;51.934;7.414;2023-05-14T09:29:15;4.18;;;2.80;;
35803;SDS011;21924;51.934;7.414;2023-05-14T09:31:59;5.15;;;2.70;;
35803;SDS011;21924;51.934;7.414;2023-05-14T09:34:47;3.92;;;2.75;;
35803;SDS011;21924;51.934;7.414;2023-05-14T09:37:34;4.22;;;2.90;;
35803;SDS011;21924;51.934;7.414;2023-05-14T09:40:19;5.68;;;2.80;;
35803;SDS011;21924;51.934;7.414;2023-05-14T09:45:49;3.78;;;2.65;;
35803;SDS011;21924;51.934;7.414;2023-05-14T09:48:33;5.63;;;3.42;;
35803;SDS011;21924;51.934;7.414;2023-05-14T09:51:18;3.92;;;2.95;;
35803;SDS011;21924;51.934;7.414;2023-05-14T09:54:04;4.25;;;2.90;;
35803;SDS011;21924;51.934;7.414;2023-05-14T09:56:48;2.92;;;2.10;;
35803;SDS011;21924;51.934;7.414;2023-05-14T09:59:32;3.35;;;2.50;;
35803;SDS011;21924;51.934;7.414;2023-05-14T10:02:24;3.97;;;2.55;;
35803;SDS011;21924;51.934;7.414;2023-05-14T10:05:09;4.53;;;2.50;;
35803;SDS011;21924;51.934;7.414;2023-05-14T10:07:55;5.60;;;2.70;;
35803;SDS011;21924;51.934;7.414;2023-05-14T10:10:41;3.05;;;2.38;;
35803;SDS011;21924;51.934;7.414;2023-05-14T10:13:29;5.20;;;3.17;;
35803;SDS011;21924;51.934;7.414;2023-05-14T10:16:20;3.72;;;2.72;;
35803;SDS011;21924;51.934;7.414;2023-05-14T10:19:15;3.70;;;2.20;;
35803;SDS011;21924;51.934;7.414;2023-05-14T10:22:04;7.28;;;2.38;;
35803;SDS011;21924;51.934;7.414;2023-05-14T10:24:50;3.35;;;2.22;;
35803;SDS011;21924;51.934;7.414;2023-05-14T10:27:35;2.50;;;2.10;;
35803;SDS011;21924;51.934;7.414;2023-05-14T10:30:20;3.35;;;2.50;;
35803;SDS011;21924;51.934;7.414;2023-05-14T10:33:10;5.00;;;2.80;;
35803;SDS011;21924;51.934;7.414;2023-05-14T10:35:59;6.15;;;3.05;;
35803;SDS011;21924;51.934;7.414;2023-05-14T10:38:45;2.95;;;2.38;;
35803;SDS011;21924;51.934;7.414;2023-05-14T10:41:29;4.40;;;2.13;;
35803;SDS011;21924;51.934;7.414;2023-05-14T10:44:16;4.07;;;2.22;;
35803;SDS011;21924;51.934;7.414;2023-05-14T10:47:01;4.10;;;2.38;;
35803;SDS011;21924;51.934;7.414;2023-05-14T10:49:46;4.70;;;2.30;;
35803;SDS011;21924;51.934;7.414;2023-05-14T10:52:35;5.35;;;2.78;;
35803;SDS011;21924;51.934;7.414;2023-05-14T10:55:20;3.05;;;2.30;;
35803;SDS011;21924;51.934;7.414;2023-05-14T10:58:05;6.30;;;2.03;;
35803;SDS011;21924;51.934;7.414;2023-05-14T11:00:50;3.33;;;2.35;;
35803;SDS011;21924;51.934;7.414;2023-05-14T11:03:41;3.38;;;2.50;;
35803;SDS011;21924;51.934;7.414;2023-05-14T11:06:26;5.53;;;2.30;;
35803;SDS011;21924;51.934;7.414;2023-05-14T11:09:12;4.50;;;2.15;;
35803;SDS011;21924;51.934;7.414;2023-05-14T11:11:59;2.85;;;2.08;;
35803;SDS011;21924;51.934;7.414;2023-05-14T11:14:45;3.17;;;1.90;;
35803;SDS011;21924;51.934;7.414;2023-05-14T11:17:30;4.70;;;2.30;;
35803;SDS011;21924;51.934;7.414;2023-05-14T11:20:14;4.95;;;2.40;;
35803;SDS011;21924;51.934;7.414;2023-05-14T11:22:59;3.13;;;2.17;;
35803;SDS011;21924;51.934;7.414;2023-05-14T11:25:44;3.58;;;2.03;;
35803;SDS011;21924;51.934;7.414;2023-05-14T11:28:28;2.83;;;2.35;;
35803;SDS011;21924;51.934;7.414;2023-05-14T11:31:12;3.85;;;2.25;;
35803;SDS011;21924;51.934;7.414;2023-05-14T11:33:57;2.70;;;1.92;;
35803;SDS011;21924;51.934;7.414;2023-05-14T11:36:41;4.78;;;2.83;;
35803;SDS011;21924;51.934;7.414;2023-05-14T11:39:25;3.25;;;2.05;;
35803;SDS011;21924;51.934;7.414;2023-05-14T11:42:10;5.57;;;2.00;;
35803;SDS011;21924;51.934;7.414;2023-05-14T11:44:56;3.45;;;2.03;;
35803;SDS011;21924;51.934;7.414;2023-05-14T11:47:40;2.88;;;1.92;;
35803;SDS011;21924;51.934;7.414;2023-05-14T11:50:25;2.33;;;1.95;;
35803;SDS011;21924;51.934;7.414;2023-05-14T11:53:09;5.03;;;2.83;;
35803;SDS011;21924;51.934;7.414;2023-05-14T11:55:53;3.03;;;1.90;;
35803;SDS011;21924;51.934;7.414;2023-05-14T11:58:45;8.63;;;2.67;;
35803;SDS011;21924;51.934;7.414;2023-05-14T12:01:38;14.43;;;3.50;;
35803;SDS011;21924;51.934;7.414;2023-05-14T12:04:22;3.00;;;2.45;;
35803;SDS011;21924;51.934;7.414;2023-05-14T12:07:07;4.60;;;2.55;;
35803;SDS011;21924;51.934;7.414;2023-05-14T12:09:53;3.05;;;2.17;;
35803;SDS011;21924;51.934;7.414;2023-05-14T12:12:37;2.65;;;2.22;;
35803;SDS011;21924;51.934;7.414;2023-05-14T12:15:22;6.72;;;2.55;;
35803;SDS011;21924;51.934;7.414;2023-05-14T12:18:09;4.07;;;2.20;;
35803;SDS011;21924;51.934;7.414;2023-05-14T12:20:53;4.05;;;2.35;;
35803;SDS011;21924;51.934;7.414;2023-05-14T12:23:38;3.10;;;1.70;;
35803;SDS011;21924;51.934;7.414;2023-05-14T12:26:22;4.00;;;2.42;;
35803;SDS011;21924;51.934;7.414;2023-05-14T12:29:10;2.88;;;2.00;;
35803;SDS011;21924;51.934;7.414;2023-05-14T12:31:56;3.03;;;2.00;;
35803;SDS011;21924;51.934;7.414;2023-05-14T12:34:46;2.22;;;1.80;;
35803;SDS011;21924;51.934;7.414;2023-05-14T12:37:31;2.72;;;2.20;;
35803;SDS011;21924;51.934;7.414;2023-05-14T12:40:16;2.88;;;1.90;;
35803;SDS011;21924;51.934;7.414;2023-05-14T12:43:00;3.50;;;1.90;;
35803;SDS011;21924;51.934;7.414;2023-05-14T12:45:44;2.97;;;2.03;;
35803;SDS011;21924;51.934;7.414;2023-05-14T12:48:29;3.63;;;2.28;;
35803;SDS011;21924;51.934;7.414;2023-05-14T12:51:13;2.42;;;2.05;;
35803;SDS011;21924;51.934;7.414;2023-05-14T12:53:58;5.33;;;1.80;;
35803;SDS011;21924;51.934;7.414;2023-05-14T12:56:42;2.90;;;2.00;;
35803;SDS011;21924;51.934;7.414;2023-05-14T12:59:26;3.28;;;2.03;;
35803;SDS011;21924;51.934;7.414;2023-05-14T13:02:10;2.78;;;1.70;;
35803;SDS011;21924;51.934;7.414;2023-05-14T13:04:55;3.05;;;2.17;;
35803;SDS011;21924;51.934;7.414;2023-05-14T13:07:39;3.30;;;1.88;;
35803;SDS011;21924;51.934;7.414;2023-05-14T13:10:23;3.88;;;2.03;;
35803;SDS011;21924;51.934;7.414;2023-05-14T13:13:08;2.88;;;1.80;;
35803;SDS011;21924;51.934;7.414;2023-05-14T13:15:52;5.30;;;2.08;;
35803;SDS011;21924;51.934;7.414;2023-05-14T13:18:36;3.92;;;2.00;;
35803;SDS011;21924;51.934;7.414;2023-05-14T13:21:21;4.70;;;2.30;;
35803;SDS011;21924;51.934;7.414;2023-05-14T13:24:05;2.42;;;1.52;;
35803;SDS011;21924;51.934;7.414;2023-05-14T13:26:49;2.50;;;1.70;;
35803;SDS011;21924;51.934;7.414;2023-05-14T13:29:33;3.63;;;1.90;;
35803;SDS011;21924;51.934;7.414;2023-05-14T13:32:18;3.13;;;1.85;;
35803;SDS011;21924;51.934;7.414;2023-05-14T13:35:02;2.97;;;1.30;;
35803;SDS011;21924;51.934;7.414;2023-05-14T13:37:46;7.45;;;1.73;;
35803;SDS011;21924;51.934;7.414;2023-05-14T13:40:30;2.45;;;1.50;;
35803;SDS011;21924;51.934;7.414;2023-05-14T13:43:14;3.17;;;1.83;;
35803;SDS011;21924;51.934;7.414;2023-05-14T13:45:59;1.97;;;1.37;;
35803;SDS011;21924;51.934;7.414;2023-05-14T13:48:44;3.92;;;1.90;;
35803;SDS011;21924;51.934;7.414;2023-05-14T13:51:28;5.05;;;1.80;;
35803;SDS011;21924;51.934;7.414;2023-05-14T13:54:12;6.47;;;4.05;;
35803;SDS011;21924;51.934;7.414;2023-05-14T13:56:57;3.63;;;2.10;;
35803;SDS011;21924;51.934;7.414;2023-05-14T13:59:41;4.68;;;2.08;;
35803;SDS011;21924;51.934;7.414;2023-05-14T14:02:25;6.00;;;2.03;;
35803;SDS011;21924;51.934;7.414;2023-05-14T14:05:09;4.57;;;1.70;;
35803;SDS011;21924;51.934;7.414;2023-05-14T14:07:54;2.60;;;2.05;;
35803;SDS011;21924;51.934;7.414;2023-05-14T14:10:38;2.85;;;1.80;;
35803;SDS011;21924;51.934;7.414;2023-05-14T14:13:24;3.88;;;1.60;;
35803;SDS011;21924;51.934;7.414;2023-05-14T14:16:09;2.65;;;1.63;;
35803;SDS011;21924;51.934;7.414;2023-05-14T14:18:53;1.92;;;1.58;;
35803;SDS011;21924;51.934;7.414;2023-05-14T14:21:37;1.40;;;1.30;;
35803;SDS011;21924;51.934;7.414;2023-05-14T14:24:25;2.40;;;1.70;;
35803;SDS011;21924;51.934;7.414;2023-05-14T14:27:10;4.88;;;2.03;;
35803;SDS011;21924;51.934;7.414;2023-05-14T14:29:54;3.20;;;1.48;;
35803;SDS011;21924;51.934;7.414;2023-05-14T14:32:39;1.60;;;1.27;;
35803;SDS011;21924;51.934;7.414;2023-05-14T14:35:27;1.67;;;1.30;;
35803;SDS011;21924;51.934;7.414;2023-05-14T14:38:11;1.98;;;1.42;;
35803;SDS011;21924;51.934;7.414;2023-05-14T14:40:56;1.17;;;1.08;;
35803;SDS011;21924;51.934;7.414;2023-05-14T14:43:40;1.48;;;1.10;;
35803;SDS011;21924;51.934;7.414;2023-05-14T14:46:26;2.65;;;1.55;;
35803;SDS011;21924;51.934;7.414;2023-05-14T14:49:10;3.55;;;1.65;;
35803;SDS011;21924;51.934;7.414;2023-05-14T14:51:54;1.75;;;1.30;;
35803;SDS011;21924;51.934;7.414;2023-05-14T14:54:38;1.80;;;1.23;;
35803;SDS011;21924;51.934;7.414;2023-05-14T14:57:23;3.97;;;2.33;;
35803;SDS011;21924;51.934;7.414;2023-05-14T15:00:07;3.33;;;1.60;;
35803;SDS011;21924;51.934;7.414;2023-05-14T15:02:52;3.17;;;1.55;;
35803;SDS011;21924;51.934;7.414;2023-05-14T15:05:38;4.22;;;1.75;;
35803;SDS011;21924;51.934;7.414;2023-05-14T15:08:25;3.45;;;1.83;;
35803;SDS011;21924;51.934;7.414;2023-05-14T15:11:10;5.32;;;1.63;;
35803;SDS011;21924;51.934;7.414;2023-05-14T15:13:55;2.55;;;1.50;;
35803;SDS011;21924;51.934;7.414;2023-05-14T15:16:39;4.15;;;1.73;;
35803;SDS011;21924;51.934;7.414;2023-05-14T15:19:24;3.42;;;1.60;;
35803;SDS011;21924;51.934;7.414;2023-05-14T15:22:08;3.92;;;1.95;;
35803;SDS011;21924;51.934;7.414;2023-05-14T15:24:53;2.30;;;1.80;;
35803;SDS011;21924;51.934;7.414;2023-05-14T15:27:37;3.40;;;1.75;;
35803;SDS011;21924;51.934;7.414;2023-05-14T15:30:21;2.20;;;1.60;;
35803;SDS011;21924;51.934;7.414;2023-05-14T15:33:06;4.07;;;1.80;;
35803;SDS011;21924;51.934;7.414;2023-05-14T15:35:51;2.40;;;1.63;;
35803;SDS011;21924;51.934;7.414;2023-05-14T15:38:35;2.55;;;1.40;;
35803;SDS011;21924;51.934;7.414;2023-05-14T15:41:20;2.53;;;1.73;;
35803;SDS011;21924;51.934;7.414;2023-05-14T15:44:05;2.75;;;1.80;;
35803;SDS011;21924;51.934;7.414;2023-05-14T15:46:49;2.30;;;1.70;;
35803;SDS011;21924;51.934;7.414;2023-05-14T15:49:33;2.42;;;1.80;;
35803;SDS011;21924;51.934;7.414;2023-05-14T15:52:18;2.58;;;1.85;;
35803;SDS011;21924;51.934;7.414;2023-05-14T15:55:02;1.90;;;1.75;;
35803;SDS011;21924;51.934;7.414;2023-05-14T16:00:32;4.82;;;1.60;;
35803;SDS011;21924;51.934;7.414;2023-05-14T16:03:16;4.85;;;1.80;;
35803;SDS011;21924;51.934;7.414;2023-05-14T16:06:00;9.77;;;2.33;;
35803;SDS011;21924;51.934;7.414;2023-05-14T16:08:44;4.63;;;2.15;;
35803;SDS011;21924;51.934;7.414;2023-05-14T16:11:29;3.97;;;1.60;;
35803;SDS011;21924;51.934;7.414;2023-05-14T16:14:13;4.03;;;1.80;;
35803;SDS011;21924;51.934;7.414;2023-05-14T16:16:57;2.15;;;1.85;;
35803;SDS011;21924;51.934;7.414;2023-05-14T16:19:42;3.78;;;1.95;;
35803;SDS011;21924;51.934;7.414;2023-05-14T16:22:26;3.40;;;1.55;;
35803;SDS011;21924;51.934;7.414;2023-05-14T16:25:12;4.90;;;2.05;;
35803;SDS011;21924;51.934;7.414;2023-05-14T16:27:56;7.82;;;2.05;;
35803;SDS011;21924;51.934;7.414;2023-05-14T16:30:40;13.30;;;2.38;;
35803;SDS011;21924;51.934;7.414;2023-05-14T16:33:25;6.88;;;1.92;;
35803;SDS011;21924;51.934;7.414;2023-05-14T16:36:09;4.15;;;2.33;;
35803;SDS011;21924;51.934;7.414;2023-05-14T16:38:54;2.25;;;1.80;;
35803;SDS011;21924;51.934;7.414;2023-05-14T16:41:38;2.38;;;1.70;;